KSOW/SOW METAR and TAF weather

Enter ICAO airport designator
Station Type Date Time Source
KSOW METAR 2019/05/23 19:15 UTC NOAA

KSOW 231915Z AUTO 20021G28KT 7SM FEW018 SCT032 SCT045 07/04 A3004 RMK AO2


Station Type Date Time Source
KSOW Decoded METAR 2019/05/23 19:15 UTC NOAA

Show Low, Show Low Regional Airport, AZ, United States (KSOW) 34-15-55N 110-00-20W
May 23, 2019 - 03:15 PM EDT / 2019.05.23 1915 UTC
Wind: from the SSW (200 degrees) at 24 MPH (21 KT) gusting to 32 MPH (28 KT):0
Visibility: 7 mile(s):0
Sky conditions: partly cloudy
Temperature: 44 F (7 C)
Dew Point: 39 F (4 C)
Relative Humidity: 81%
Pressure (altimeter): 30.04 in. Hg (1017 hPa)
ob: KSOW 231915Z AUTO 20021G28KT 7SM FEW018 SCT032 SCT045 07/04 A3004 RMK AO2
cycle: 19

Station Type Date Time Source
KSOW TAF UTC NOAA

Error!

Example: see airport list